NL-0030 weather

Glider Field De Voorst
De Voorst, Flevoland, Netherlands

Public forecast

Using degrees Celsius for public forecast. Weather courtesy of forecast.io.

METAR (pilot weather report)

Closest report is Leeuwarden Air Base, 33.1 nm (61.3 km) N. Retrieved 2019/03/22 21:25 UTC (34 minutes ago):

EHLW 222125Z AUTO 27009KT 3200 BR BKN007 OVC008 07/06 Q1027 YLO

TAF (pilot weather forecast)

Closest forecast is Leeuwarden Air Base, 33.1 nm (61.3 km) N. Retrieved 2019/03/22 22:27 UTC (0 seconds ago):

TAF EHLW 222119Z 2222/2310 27008KT 3000 BR BKN008 BECMG 2302/2304 9999 BKN020 PROB40 TEMPO 2306/2309 4000 -DZ BKN008 BKN010 BECMG 2306/2309 34010KT